Time,TemperatureF,DewpointF,PressureIn,WindDirection,WindDirectionDegrees,WindSpeedMPH,WindSpeedGustMPH,Humidity,HourlyPrecipIn,Conditions,Clouds,dailyrainin,SoftwareType,DateUTC
2013-02-02 00:02:00,12.9,7.0,30.22,WSW,242,6.0,-999.0,77,-99.99,,,0.00,weatherlink.com 1.10,2013-02-02 05:02:00,
2013-02-02 00:17:00,12.7,7.0,30.22,West,264,4.0,-999.0,77,-99.99,,,0.00,weatherlink.com 1.10,2013-02-02 05:17:00,
2013-02-02 00:32:00,12.6,7.0,30.22,SSW,208,2.0,-999.0,78,-99.99,,,0.00,weatherlink.com 1.10,2013-02-02 05:32:00,
2013-02-02 00:47:00,12.6,7.0,30.21,West,262,2.0,-999.0,79,-99.99,,,0.00,weatherlink.com 1.10,2013-02-02 05:47:00,
2013-02-02 01:02:00,12.5,7.0,30.21,West,271,3.0,-999.0,79,-99.99,,,0.00,weatherlink.com 1.10,2013-02-02 06:02:00,
2013-02-02 01:17:00,12.4,7.0,30.21,WSW,250,4.0,-999.0,79,-99.99,,,0.00,weatherlink.com 1.10,2013-02-02 06:17:00,
2013-02-02 01:32:00,12.2,7.0,30.20,WSW,241,7.0,-999.0,81,-99.99,,,0.00,weatherlink.com 1.10,2013-02-02 06:32:00,
2013-02-02 01:47:00,12.2,7.0,30.20,WSW,256,5.0,-999.0,81,-99.99,,,0.00,weatherlink.com 1.10,2013-02-02 06:47:00,
2013-02-02 02:02:00,12.5,8.0,30.19,SSW,208,6.0,-999.0,82,-99.99,,,0.00,weatherlink.com 1.10,2013-02-02 07:02:00,
2013-02-02 02:17:00,12.9,8.0,30.19,West,262,2.0,-999.0,81,-99.99,,,0.00,weatherlink.com 1.10,2013-02-02 07:17:00,
2013-02-02 02:32:00,13.2,8.0,30.18,South,190,7.0,-999.0,81,-99.99,,,0.00,weatherlink.com 1.10,2013-02-02 07:32:00,
2013-02-02 02:47:00,13.4,9.0,30.18,WSW,242,4.0,-999.0,81,-99.99,,,0.00,weatherlink.com 1.10,2013-02-02 07:47:00,
2013-02-02 03:17:00,13.8,9.0,30.17,WSW,239,6.0,-999.0,80,-99.99,,,0.00,weatherlink.com 1.10,2013-02-02 08:17:00,
2013-02-02 03:32:00,14.1,9.0,30.17,WSW,256,8.0,-999.0,80,-99.99,,,0.00,weatherlink.com 1.10,2013-02-02 08:32:00,
2013-02-02 03:47:00,14.3,10.0,30.16,WSW,250,4.0,-999.0,81,-99.99,,,0.00,weatherlink.com 1.10,2013-02-02 08:47:00,
2013-02-02 04:02:00,14.3,10.0,30.15,WSW,255,6.0,-999.0,82,-99.99,,,0.00,weatherlink.com 1.10,2013-02-02 09:02:00,
2013-02-02 04:17:00,14.3,10.0,30.15,WSW,252,2.0,-999.0,84,-99.99,,,0.00,weatherlink.com 1.10,2013-02-02 09:17:00,
2013-02-02 04:32:00,14.3,11.0,30.14,WSW,248,4.0,-999.0,85,-99.99,,,0.00,weatherlink.com 1.10,2013-02-02 09:32:00,
2013-02-02 04:47:00,-999.0,-99.9,30.13,North,-999,-999.0,-999.0,-999,-99.99,,,0.00,weatherlink.com 1.10,2013-02-02 09:47:00,
2013-02-02 05:02:00,-999.0,-99.9,30.12,North,-999,-999.0,-999.0,-999,-99.99,,,0.00,weatherlink.com 1.10,2013-02-02 10:02:00,
2013-02-02 05:17:00,-999.0,-99.9,30.12,North,-999,-999.0,-999.0,-999,-99.99,,,0.00,weatherlink.com 1.10,2013-02-02 10:17:00,
2013-02-02 05:32:00,-999.0,-99.9,30.11,North,-999,-999.0,-999.0,-999,-99.99,,,0.00,weatherlink.com 1.10,2013-02-02 10:32:00,
2013-02-02 05:47:00,-999.0,-99.9,30.10,North,-999,-999.0,-999.0,-999,-99.99,,,0.00,weatherlink.com 1.10,2013-02-02 10:47:00,
2013-02-02 06:02:00,-999.0,-99.9,30.09,North,-999,-999.0,-999.0,-999,-99.99,,,0.00,weatherlink.com 1.10,2013-02-02 11:02:00,
2013-02-02 06:17:00,-999.0,-99.9,30.08,North,-999,-999.0,-999.0,-999,-99.99,,,0.00,weatherlink.com 1.10,2013-02-02 11:17:00,
2013-02-02 06:32:00,-999.0,-99.9,30.08,North,-999,-999.0,-999.0,-999,-99.99,,,0.00,weatherlink.com 1.10,2013-02-02 11:32:00,
2013-02-02 06:47:00,-999.0,-99.9,30.07,North,-999,-999.0,-999.0,-999,-99.99,,,0.00,weatherlink.com 1.10,2013-02-02 11:47:00,
2013-02-02 07:02:00,-999.0,-99.9,30.07,North,-999,-999.0,-999.0,-999,-99.99,,,0.00,weatherlink.com 1.10,2013-02-02 12:02:00,
2013-02-02 07:17:00,-999.0,-99.9,30.07,North,-999,-999.0,-999.0,-999,-99.99,,,0.00,weatherlink.com 1.10,2013-02-02 12:17:00,
2013-02-02 07:32:00,-999.0,-99.9,30.07,North,-999,-999.0,-999.0,-999,-99.99,,,0.00,weatherlink.com 1.10,2013-02-02 12:32:00,
2013-02-02 07:47:00,-999.0,-99.9,30.06,North,-999,-999.0,-999.0,-999,-99.99,,,0.00,weatherlink.com 1.10,2013-02-02 12:47:00,
2013-02-02 08:02:00,-999.0,-99.9,30.06,North,-999,-999.0,-999.0,-999,-99.99,,,0.00,weatherlink.com 1.10,2013-02-02 13:02:00,
2013-02-02 08:17:00,-999.0,-99.9,30.06,North,-999,-999.0,-999.0,-999,-99.99,,,0.00,weatherlink.com 1.10,2013-02-02 13:17:00,
2013-02-02 08:32:00,-999.0,-99.9,30.05,North,-999,-999.0,-999.0,-999,-99.99,,,0.00,weatherlink.com 1.10,2013-02-02 13:32:00,
2013-02-02 08:47:00,-999.0,-99.9,30.05,North,-999,-999.0,-999.0,-999,-99.99,,,0.00,weatherlink.com 1.10,2013-02-02 13:47:00,
2013-02-02 09:02:00,-999.0,-99.9,30.05,North,-999,-999.0,-999.0,-999,-99.99,,,0.00,weatherlink.com 1.10,2013-02-02 14:02:00,
2013-02-02 09:17:00,16.9,15.0,30.04,SW,214,2.0,-999.0,90,-99.99,,,0.00,weatherlink.com 1.10,2013-02-02 14:17:00,
2013-02-02 09:32:00,17.2,15.0,30.04,SSW,208,5.0,-999.0,89,-99.99,,,0.00,weatherlink.com 1.10,2013-02-02 14:32:00,
2013-02-02 09:47:00,17.6,15.0,30.03,SSW,210,4.0,-999.0,89,-99.99,,,0.00,weatherlink.com 1.10,2013-02-02 14:47:00,
2013-02-02 10:02:00,18.0,15.0,30.03,SW,225,2.0,-999.0,88,-99.99,,,0.00,weatherlink.com 1.10,2013-02-02 15:02:00,
2013-02-02 10:17:00,18.4,15.0,30.03,SSW,210,4.0,-999.0,87,-99.99,,,0.00,weatherlink.com 1.10,2013-02-02 15:17:00,
2013-02-02 10:32:00,18.5,15.0,30.02,SW,232,2.0,-999.0,87,-99.99,,,0.00,weatherlink.com 1.10,2013-02-02 15:32:00,
2013-02-02 10:47:00,18.8,16.0,30.01,SW,225,6.0,-999.0,87,-99.99,,,0.00,weatherlink.com 1.10,2013-02-02 15:47:00,
2013-02-02 11:02:00,19.4,16.0,30.01,WSW,256,5.0,-999.0,86,-99.99,,,0.00,weatherlink.com 1.10,2013-02-02 16:02:00,
2013-02-02 11:17:00,19.7,16.0,30.00,SSW,204,6.0,-999.0,86,-99.99,,,0.00,weatherlink.com 1.10,2013-02-02 16:17:00,
2013-02-02 11:32:00,20.3,17.0,30.00,SW,214,4.0,-999.0,85,-99.99,,,0.00,weatherlink.com 1.10,2013-02-02 16:32:00,
2013-02-02 11:47:00,20.5,17.0,29.99,SW,228,3.0,-999.0,85,-99.99,,,0.00,weatherlink.com 1.10,2013-02-02 16:47:00,
2013-02-02 12:02:00,21.0,17.0,29.98,WSW,249,2.0,-999.0,84,-99.99,,,0.00,weatherlink.com 1.10,2013-02-02 17:02:00,
2013-02-02 12:17:00,21.5,17.0,29.98,WSW,242,4.0,-999.0,84,-99.99,,,0.00,weatherlink.com 1.10,2013-02-02 17:17:00,
2013-02-02 12:32:00,21.7,17.0,29.97,WSW,257,4.0,-999.0,83,-99.99,,,0.00,weatherlink.com 1.10,2013-02-02 17:32:00,
2013-02-02 12:47:00,22.1,17.0,29.96,West,260,3.0,-999.0,82,-99.99,,,0.00,weatherlink.com 1.10,2013-02-02 17:47:00,
2013-02-02 13:02:00,22.3,18.0,29.96,West,262,2.0,-999.0,83,-99.99,,,0.00,weatherlink.com 1.10,2013-02-02 18:02:00,
2013-02-02 13:17:00,22.1,18.0,29.96,WNW,290,2.0,-999.0,83,-99.99,,,0.00,weatherlink.com 1.10,2013-02-02 18:17:00,
2013-02-02 13:32:00,22.5,18.0,29.95,WSW,253,1.0,-999.0,84,-99.99,,,0.00,weatherlink.com 1.10,2013-02-02 18:32:00,
2013-02-02 13:47:00,22.7,19.0,29.95,SW,221,2.0,-999.0,84,-99.99,,,0.00,weatherlink.com 1.10,2013-02-02 18:47:00,
2013-02-02 14:02:00,22.6,19.0,29.95,WNW,285,0.0,-999.0,86,-99.99,,,0.00,weatherlink.com 1.10,2013-02-02 19:02:00,
2013-02-02 14:17:00,22.9,19.0,29.95,West,269,4.0,-999.0,86,-99.99,,,0.00,weatherlink.com 1.10,2013-02-02 19:17:00,
2013-02-02 14:32:00,23.2,20.0,29.94,WSW,255,4.0,-999.0,86,-99.99,,,0.00,weatherlink.com 1.10,2013-02-02 19:32:00,
2013-02-02 14:47:00,23.6,20.0,29.94,WNW,290,1.0,-999.0,85,-99.99,,,0.00,weatherlink.com 1.10,2013-02-02 19:47:00,
2013-02-02 15:02:00,23.8,20.0,29.94,WSW,242,1.0,-999.0,86,-99.99,,,0.00,weatherlink.com 1.10,2013-02-02 20:02:00,
2013-02-02 15:17:00,24.1,20.0,29.94,WNW,295,1.0,-999.0,84,-99.99,,,0.00,weatherlink.com 1.10,2013-02-02 20:17:00,
2013-02-02 15:32:00,24.1,20.0,29.94,West,276,1.0,-999.0,85,-99.99,,,0.00,weatherlink.com 1.10,2013-02-02 20:32:00,
2013-02-02 15:47:00,24.0,20.0,29.95,West,259,1.0,-999.0,85,-99.99,,,0.00,weatherlink.com 1.10,2013-02-02 20:47:00,
2013-02-02 16:02:00,23.8,20.0,29.95,West,269,1.0,-999.0,86,-99.99,,,0.00,weatherlink.com 1.10,2013-02-02 21:02:00,
2013-02-02 16:17:00,23.5,21.0,29.95,WSW,249,1.0,-999.0,88,-99.99,,,0.00,weatherlink.com 1.10,2013-02-02 21:17:00,
2013-02-02 16:32:00,23.6,21.0,29.95,West,269,3.0,-999.0,88,-99.99,,,0.00,weatherlink.com 1.10,2013-02-02 21:32:00,
2013-02-02 16:47:00,23.6,21.0,29.96,NNW,328,1.0,-999.0,88,-99.99,,,0.00,weatherlink.com 1.10,2013-02-02 21:47:00,
2013-02-02 17:02:00,21.7,18.0,29.96,NNE,25,7.0,-999.0,87,-99.99,,,0.00,weatherlink.com 1.10,2013-02-02 22:02:00,
2013-02-02 17:17:00,20.8,18.0,29.97,NNW,341,3.0,-999.0,88,-99.99,,,0.00,weatherlink.com 1.10,2013-02-02 22:17:00,
2013-02-02 17:32:00,20.4,18.0,29.98,NNE,23,3.0,-999.0,89,-99.99,,,0.00,weatherlink.com 1.10,2013-02-02 22:32:00,
2013-02-02 17:47:00,20.0,17.0,29.98,NNW,329,4.0,-999.0,88,-99.99,,,0.00,weatherlink.com 1.10,2013-02-02 22:47:00,
2013-02-02 18:02:00,19.7,17.0,29.98,North,7,1.0,-999.0,88,-99.99,,,0.00,weatherlink.com 1.10,2013-02-02 23:02:00,
2013-02-02 18:17:00,19.5,17.0,29.98,NNE,25,1.0,-999.0,88,-99.99,,,0.00,weatherlink.com 1.10,2013-02-02 23:17:00,
2013-02-02 18:32:00,19.2,16.0,29.99,NNW,345,4.0,-999.0,87,-99.99,,,0.00,weatherlink.com 1.10,2013-02-02 23:32:00,
2013-02-02 18:47:00,18.9,15.0,30.00,North,349,3.0,-999.0,86,-99.99,,,0.00,weatherlink.com 1.10,2013-02-02 23:47:00,
2013-02-02 19:02:00,18.7,15.0,30.00,NNE,15,0.0,-999.0,84,-99.99,,,0.00,weatherlink.com 1.10,2013-02-03 00:02:00,
2013-02-02 19:17:00,18.4,14.0,30.00,NNE,29,4.0,-999.0,83,-99.99,,,0.00,weatherlink.com 1.10,2013-02-03 00:17:00,
2013-02-02 19:32:00,18.1,14.0,30.01,NNW,334,0.0,-999.0,84,-99.99,,,0.00,weatherlink.com 1.10,2013-02-03 00:32:00,
2013-02-02 19:47:00,17.7,14.0,30.01,North,11,0.0,-999.0,84,-99.99,,,0.00,weatherlink.com 1.10,2013-02-03 00:47:00,
2013-02-02 20:02:00,17.4,13.0,30.01,North,8,0.0,-999.0,84,-99.99,,,0.00,weatherlink.com 1.10,2013-02-03 01:02:00,
2013-02-02 20:17:00,17.1,13.0,30.01,NNW,337,2.0,-999.0,84,-99.99,,,0.00,weatherlink.com 1.10,2013-02-03 01:17:00,
2013-02-02 20:32:00,16.8,13.0,30.01,WNW,302,1.0,-999.0,84,-99.99,,,0.00,weatherlink.com 1.10,2013-02-03 01:32:00,
2013-02-02 20:47:00,16.4,12.0,30.02,NNW,340,0.0,-999.0,84,-99.99,,,0.00,weatherlink.com 1.10,2013-02-03 01:47:00,
2013-02-02 21:02:00,15.9,12.0,30.02,ENE,57,4.0,-999.0,85,-99.99,,,0.00,weatherlink.com 1.10,2013-02-03 02:02:00,
2013-02-02 21:17:00,15.0,11.0,30.02,NNE,20,1.0,-999.0,84,-99.99,,,0.00,weatherlink.com 1.10,2013-02-03 02:17:00,
2013-02-02 21:32:00,14.2,10.0,30.02,NNW,330,0.0,-999.0,84,-99.99,,,0.00,weatherlink.com 1.10,2013-02-03 02:32:00,
2013-02-02 21:47:00,13.7,10.0,30.02,NE,36,0.0,-999.0,85,-99.99,,,0.00,weatherlink.com 1.10,2013-02-03 02:47:00,
2013-02-02 22:02:00,13.6,10.0,30.02,NE,39,0.0,-999.0,85,-99.99,,,0.00,weatherlink.com 1.10,2013-02-03 03:02:00,
2013-02-02 22:17:00,13.5,10.0,30.02,NNE,26,1.0,-999.0,84,-99.99,,,0.00,weatherlink.com 1.10,2013-02-03 03:17:00,
2013-02-02 22:32:00,13.4,9.0,30.02,NE,44,1.0,-999.0,84,-99.99,,,0.00,weatherlink.com 1.10,2013-02-03 03:32:00,
2013-02-02 22:47:00,13.0,9.0,30.01,NE,43,0.0,-999.0,84,-99.99,,,0.00,weatherlink.com 1.10,2013-02-03 03:47:00,
2013-02-02 23:02:00,12.0,8.0,30.01,NE,43,0.0,-999.0,84,-99.99,,,0.00,weatherlink.com 1.10,2013-02-03 04:02:00,
2013-02-02 23:17:00,11.2,8.0,30.01,NE,43,0.0,-999.0,85,-99.99,,,0.00,weatherlink.com 1.10,2013-02-03 04:17:00,
2013-02-02 23:32:00,10.0,7.0,30.01,NE,43,0.0,-999.0,86,-99.99,,,0.00,weatherlink.com 1.10,2013-02-03 04:32:00,
2013-02-02 23:47:00,9.7,7.0,30.01,NE,42,0.0,-999.0,88,-99.99,,,0.00,weatherlink.com 1.10,2013-02-03 04:47:00,